Farley, Iowa
Current Conditions -  °F | °C
As of 2:53 PM on Monday 24 Nov 2014 (Local Time) from KDBQ Reporting Station
Haze Haze  
Wind Chill:   Ceiling: 1200
Heat Index: 22°   Visibility: 6mi
Dew Point: 19°   Wind: 24mph
Humidity: 89%   Direction: 280°W
Pressure: 29.53"   Gusts: 36mph
Location:  42.44°N, 91.01°W
Report Text: KDBQ 242053Z AUTO 28021G31KT 6SM BR OVC012 M06/M07 A2953 RMK AO2 PK WND 28031/2048 SLP010 I1003 I3003 T10561072 53047
Loading
Personal Weather Stations






























Interactive Weather Map New forecast layout! Learn more

10-Day Weather Forecast

Advertisements
Track Severe Weather on mobile